Time;durP1;ratioP1;P1;durP2;ratioP2;P2;SDS_P1;SDS_P2;PMS_P1;PMS_P2;Temp;Humidity;BMP_temperature;BMP_pressure;BME280_temperature;BME280_humidity;BME280_pressure;Samples;Min_cycle;Max_cycle;Signal;HPM_P1;HPM_P2
2022/12/13 00:00:53;;;;;;;434.80;267.77;;;;;;;-0.43;61.35;100818.47;4162670;28;20627;-55
2022/12/13 00:02:56;;;;;;;433.10;265.73;;;;;;;-0.44;61.10;100819.44;4175615;28;20652;-58
2022/12/13 00:04:58;;;;;;;429.07;244.53;;;;;;;-0.46;61.04;100820.50;4176326;28;20225;-59
2022/12/13 00:07:02;;;;;;;435.67;267.03;;;;;;;-0.45;60.83;100823.03;4163050;28;20278;-59
2022/12/13 00:09:06;;;;;;;448.87;320.90;;;;;;;-0.46;60.77;100820.50;4163478;28;20298;-58
2022/12/13 00:11:11;;;;;;;445.43;304.30;;;;;;;-0.48;60.76;100817.09;4162091;28;20294;-56
2022/12/13 00:13:14;;;;;;;441.60;294.33;;;;;;;-0.50;60.99;100811.03;4176128;28;20286;-59
2022/12/13 00:15:16;;;;;;;443.43;292.17;;;;;;;-0.48;61.01;100815.28;4173387;28;20318;-58
2022/12/13 00:17:18;;;;;;;443.57;304.30;;;;;;;-0.48;61.17;100820.59;4167267;28;20268;-58
2022/12/13 00:19:21;;;;;;;436.33;272.13;;;;;;;-0.49;61.24;100816.22;4179346;28;20298;-58
2022/12/13 00:21:25;;;;;;;446.27;307.10;;;;;;;-0.50;61.29;100811.91;4178340;28;20318;-60
2022/12/13 00:23:29;;;;;;;439.47;273.07;;;;;;;-0.50;61.35;100806.59;4152177;28;20237;-57
2022/12/13 00:25:33;;;;;;;439.33;278.80;;;;;;;-0.48;61.49;100802.03;4158418;28;20315;-59
2022/12/13 00:27:36;;;;;;;441.60;278.03;;;;;;;-0.46;61.54;100800.09;4155386;28;20270;-58
2022/12/13 00:29:38;;;;;;;440.47;283.17;;;;;;;-0.45;61.47;100804.47;4179414;28;20309;-56
2022/12/13 00:31:41;;;;;;;429.03;248.27;;;;;;;-0.44;61.45;100800.88;4167785;28;20314;-57
2022/12/13 00:33:44;;;;;;;431.40;255.60;;;;;;;-0.44;61.50;100798.22;4177251;28;20286;-57
2022/12/13 00:35:47;;;;;;;432.43;266.17;;;;;;;-0.42;61.62;100798.94;4178494;28;20314;-56
2022/12/13 00:37:49;;;;;;;424.63;251.17;;;;;;;-0.45;61.47;100796.50;4179131;28;20767;-56
2022/12/13 00:39:53;;;;;;;438.87;279.87;;;;;;;-0.48;61.45;100787.91;4174555;28;20303;-59
2022/12/13 00:41:55;;;;;;;438.00;288.13;;;;;;;-0.47;61.63;100785.16;4171031;28;20315;-57
2022/12/13 00:43:58;;;;;;;460.53;327.63;;;;;;;-0.47;61.94;100787.81;4174033;28;20299;-55
2022/12/13 00:46:00;;;;;;;449.53;299.20;;;;;;;-0.46;61.64;100791.31;4160428;28;20315;-59
2022/12/13 00:48:03;;;;;;;454.70;316.53;;;;;;;-0.46;61.82;100789.50;4163078;28;20284;-59
2022/12/13 00:50:06;;;;;;;458.97;336.47;;;;;;;-0.46;61.80;100786.00;4173766;28;20740;-58
2022/12/13 00:52:08;;;;;;;444.17;290.07;;;;;;;-0.49;61.80;100783.56;4178661;28;20617;-57
2022/12/13 00:54:10;;;;;;;413.87;218.40;;;;;;;-0.51;62.01;100786.31;4174158;28;20655;-56
2022/12/13 00:56:16;;;;;;;417.60;229.60;;;;;;;-0.50;62.36;100776.53;4153751;28;20247;-58
2022/12/13 00:58:19;;;;;;;412.43;231.03;;;;;;;-0.46;62.40;100780.69;4175578;28;20207;-56
2022/12/13 01:00:21;;;;;;;410.13;209.17;;;;;;;-0.47;62.29;100776.31;4162174;28;20733;-58
2022/12/13 01:02:23;;;;;;;414.67;229.27;;;;;;;-0.47;62.34;100779.84;4163226;28;20730;-58
2022/12/13 01:04:27;;;;;;;436.47;276.10;;;;;;;-0.46;62.44;100778.03;4163566;28;20279;-58
2022/12/13 01:06:32;;;;;;;444.73;288.30;;;;;;;-0.51;62.35;100785.47;4157244;28;20311;-58
2022/12/13 01:08:35;;;;;;;425.77;249.03;;;;;;;-0.47;62.53;100777.19;4154035;28;20295;-56
2022/12/13 01:10:37;;;;;;;431.57;256.30;;;;;;;-0.47;62.63;100789.59;4157626;28;20335;-57
2022/12/13 01:12:41;;;;;;;413.93;206.13;;;;;;;-0.45;62.75;100791.19;4162117;28;20287;-58
2022/12/13 01:14:43;;;;;;;407.20;202.30;;;;;;;-0.44;62.65;100792.03;4162948;28;21285;-58
2022/12/13 01:16:45;;;;;;;429.37;257.47;;;;;;;-0.44;62.77;100792.91;4162024;28;20745;-58
2022/12/13 01:18:48;;;;;;;463.77;353.50;;;;;;;-0.46;62.34;100784.19;4162097;28;20688;-58
2022/12/13 01:20:58;;;;;;;474.33;388.50;;;;;;;-0.47;62.43;100784.28;4162739;28;20655;-59
2022/12/13 01:23:01;;;;;;;453.37;321.27;;;;;;;-0.46;62.08;100781.53;4162879;28;20275;-59
2022/12/13 01:25:03;;;;;;;424.40;240.30;;;;;;;-0.48;61.96;100787.91;4160355;28;20287;-59
2022/12/13 01:27:05;;;;;;;434.83;289.23;;;;;;;-0.51;61.97;100783.66;4172795;28;20214;-60
2022/12/13 01:29:10;;;;;;;444.10;314.37;;;;;;;-0.52;62.02;100789.91;4174252;28;20323;-59
2022/12/13 01:31:14;;;;;;;437.77;281.33;;;;;;;-0.52;62.10;100784.59;4169525;28;20322;-59
2022/12/13 01:33:17;;;;;;;445.77;299.00;;;;;;;-0.49;62.53;100783.56;4178979;28;20664;-60
2022/12/13 01:35:19;;;;;;;449.50;303.57;;;;;;;-0.46;62.31;100789.50;4177647;28;20306;-59
2022/12/13 01:37:21;;;;;;;457.20;341.93;;;;;;;-0.50;62.20;100780.06;4166838;28;20290;-58
2022/12/13 01:39:24;;;;;;;442.80;291.70;;;;;;;-0.51;62.05;100780.16;4180153;28;20219;-59
2022/12/13 01:41:28;;;;;;;411.67;230.00;;;;;;;-0.52;62.21;100787.25;4181403;28;20749;-60
2022/12/13 01:43:50;;;;;;;400.97;198.63;;;;;;;-0.53;62.47;100790.00;4172821;28;20282;-58
2022/12/13 01:45:54;;;;;;;397.53;193.10;;;;;;;-0.52;62.83;100774.00;4177947;28;20765;-59
2022/12/13 01:47:58;;;;;;;403.77;203.70;;;;;;;-0.50;63.05;100789.81;4181891;28;20732;-59
2022/12/13 01:50:06;;;;;;;403.60;208.90;;;;;;;-0.49;62.89;100786.22;4171198;28;20740;-59
2022/12/13 01:52:10;;;;;;;407.60;208.90;;;;;;;-0.48;62.88;100777.31;4178166;28;21225;-59
2022/12/13 01:54:16;;;;;;;401.00;194.20;;;;;;;-0.51;63.09;100775.69;4159026;28;21242;-56
2022/12/13 01:56:26;;;;;;;407.53;214.10;;;;;;;-0.50;63.45;100777.41;4163382;28;20709;-57
2022/12/13 01:58:29;;;;;;;413.53;234.50;;;;;;;-0.49;63.40;100779.09;4177152;28;20728;-57
2022/12/13 02:00:32;;;;;;;428.40;257.43;;;;;;;-0.49;63.16;100773.78;4178216;28;20745;-57
2022/12/13 02:02:37;;;;;;;408.60;211.47;;;;;;;-0.49;63.25;100772.94;4180923;28;20610;-57
2022/12/13 02:04:41;;;;;;;418.20;228.27;;;;;;;-0.49;63.41;100772.94;4180710;28;20717;-56
2022/12/13 02:06:45;;;;;;;432.10;272.13;;;;;;;-0.48;63.67;100774.66;4179300;28;20764;-57
2022/12/13 02:08:47;;;;;;;419.20;225.87;;;;;;;-0.52;63.66;100771.34;4181189;28;20309;-57
2022/12/13 02:10:49;;;;;;;419.70;235.60;;;;;;;-0.52;63.52;100774.00;4175082;28;20302;-58
2022/12/13 02:12:51;;;;;;;412.13;220.70;;;;;;;-0.52;63.66;100773.16;4174828;28;20708;-58
2022/12/13 02:14:54;;;;;;;408.50;209.83;;;;;;;-0.51;63.77;100778.34;4181008;28;20748;-59
2022/12/13 02:17:01;;;;;;;400.13;193.03;;;;;;;-0.50;63.60;100777.41;4164254;28;20717;-57
2022/12/13 02:19:36;;;;;;;399.83;207.87;;;;;;;-0.51;63.51;100769.56;4171745;28;20728;-57
2022/12/13 02:21:45;;;;;;;388.20;178.30;;;;;;;-0.50;63.28;100766.78;4173079;28;20632;-60
2022/12/13 02:24:21;;;;;;;393.83;189.73;;;;;;;-0.53;63.05;100772.31;4181206;28;20643;-58
2022/12/13 02:26:52;;;;;;;388.37;180.50;;;;;;;-0.56;62.85;100772.50;4160871;28;20741;-57
2022/12/13 02:29:08;;;;;;;403.37;212.53;;;;;;;-0.58;63.10;100775.28;4150896;28;20761;-58
2022/12/13 02:31:14;;;;;;;386.20;163.00;;;;;;;-0.61;63.20;100774.59;4167143;28;20740;-59
2022/12/13 02:33:34;;;;;;;391.37;182.17;;;;;;;-0.64;63.99;100770.38;4181553;28;20717;-58
2022/12/13 02:35:42;;;;;;;393.60;169.80;;;;;;;-0.66;64.35;100772.28;4180001;28;20748;-59
2022/12/13 02:37:50;;;;;;;413.53;220.13;;;;;;;-0.74;64.77;100756.03;4180445;28;20708;-57
2022/12/13 02:39:56;;;;;;;401.47;187.60;;;;;;;-0.72;65.19;100764.75;4180919;28;20302;-58
2022/12/13 02:42:01;;;;;;;393.53;167.47;;;;;;;-0.71;65.44;100761.13;4169634;28;20645;-58
2022/12/13 02:44:08;;;;;;;401.30;192.00;;;;;;;-0.70;65.69;100760.19;4156857;28;20705;-58
2022/12/13 02:46:12;;;;;;;400.60;190.50;;;;;;;-0.74;65.77;100758.69;4166629;28;20745;-59
2022/12/13 02:48:18;;;;;;;434.63;276.00;;;;;;;-0.75;65.97;100762.31;4163839;28;21074;-56
2022/12/13 02:50:21;;;;;;;438.73;278.70;;;;;;;-0.73;66.22;100763.03;4164388;28;20302;-57
2022/12/13 02:52:26;;;;;;;428.43;243.97;;;;;;;-0.73;66.28;100758.56;4175587;28;20835;-60
2022/12/13 02:54:29;;;;;;;420.87;237.77;;;;;;;-0.74;66.75;100758.69;4165419;28;20282;-58
2022/12/13 02:56:32;;;;;;;403.07;188.93;;;;;;;-0.71;66.92;100760.28;4163108;28;20748;-57
2022/12/13 02:58:36;;;;;;;408.77;210.33;;;;;;;-0.71;66.81;100754.97;4175614;28;20705;-59
2022/12/13 03:00:48;;;;;;;402.10;195.93;;;;;;;-0.74;67.03;100756.91;4163855;28;20741;-58
2022/12/13 03:03:03;;;;;;;403.47;197.60;;;;;;;-0.78;67.11;100757.22;4163469;28;20614;-58
2022/12/13 03:07:39;;;;;;;438.03;277.13;;;;;;;-0.81;67.93;100752.13;4164788;28;20713;-59
2022/12/13 03:09:51;;;;;;;433.33;267.17;;;;;;;-0.84;68.00;100754.97;4149933;28;20275;-58
2022/12/13 03:14:27;;;;;;;436.17;277.07;;;;;;;-0.82;68.15;100759.19;4163421;28;20215;-57
2022/12/13 03:16:35;;;;;;;416.00;223.37;;;;;;;-0.79;68.46;100761.63;4163249;28;20246;-61
2022/12/13 03:18:40;;;;;;;412.30;213.70;;;;;;;-0.78;68.50;100759.84;4164295;28;20286;-59
2022/12/13 03:20:45;;;;;;;408.83;204.20;;;;;;;-0.77;68.54;100756.22;4163804;28;20239;-59
2022/12/13 03:22:48;;;;;;;409.37;221.27;;;;;;;-0.76;68.56;100756.13;4165075;28;20294;-58
2022/12/13 03:24:52;;;;;;;408.40;224.33;;;;;;;-0.80;68.93;100744.06;4158806;28;20701;-60
2022/12/13 03:26:55;;;;;;;397.10;193.20;;;;;;;-0.75;68.80;100747.22;4151038;28;21237;-60
2022/12/13 03:28:57;;;;;;;397.43;194.80;;;;;;;-0.78;68.77;100746.59;4164541;28;20730;-61
2022/12/13 03:31:00;;;;;;;435.53;276.93;;;;;;;-0.77;68.73;100751.81;4163844;28;20741;-61
2022/12/13 03:33:02;;;;;;;446.17;316.07;;;;;;;-0.76;68.97;100752.63;4162320;28;20279;-61
2022/12/13 03:35:07;;;;;;;443.37;290.63;;;;;;;-0.78;68.89;100747.44;4157959;28;20306;-60
2022/12/13 03:37:10;;;;;;;428.97;259.30;;;;;;;-0.76;68.89;100742.88;4163845;28;20278;-60
2022/12/13 03:39:12;;;;;;;409.57;205.17;;;;;;;-0.78;68.99;100741.28;4167738;28;20298;-60
2022/12/13 03:41:17;;;;;;;405.13;203.33;;;;;;;-0.82;69.02;100735.31;4175645;28;21101;-60
2022/12/13 03:43:19;;;;;;;409.47;224.20;;;;;;;-0.83;69.15;100738.94;4170258;28;20616;-60
2022/12/13 03:45:22;;;;;;;406.90;207.73;;;;;;;-0.88;69.36;100738.38;4178962;28;20776;-60
2022/12/13 03:47:24;;;;;;;404.33;199.20;;;;;;;-0.92;69.44;100731.63;4167166;28;21095;-59
2022/12/13 03:49:26;;;;;;;408.43;216.67;;;;;;;-0.91;69.61;100734.16;4150533;28;20739;-59
2022/12/13 03:51:30;;;;;;;401.67;197.20;;;;;;;-0.91;69.59;100738.59;4162919;28;20749;-60
2022/12/13 03:53:32;;;;;;;397.30;182.80;;;;;;;-0.92;69.67;100737.75;4161913;28;20702;-59
2022/12/13 03:55:34;;;;;;;402.70;198.53;;;;;;;-0.93;69.92;100733.41;4155646;28;20750;-59
2022/12/13 03:57:37;;;;;;;402.63;208.17;;;;;;;-0.92;70.04;100739.56;4161270;28;20722;-60
2022/12/13 03:59:39;;;;;;;395.67;185.13;;;;;;;-0.93;69.82;100733.41;4163088;28;20777;-60
2022/12/13 04:01:41;;;;;;;391.07;169.57;;;;;;;-0.95;70.04;100721.22;4163223;28;20738;-60
2022/12/13 04:03:45;;;;;;;401.50;199.13;;;;;;;-0.96;70.06;100727.47;4163570;28;20629;-60
2022/12/13 04:05:47;;;;;;;402.23;203.57;;;;;;;-0.95;70.15;100731.81;4171703;28;20736;-59
2022/12/13 04:07:51;;;;;;;417.73;244.20;;;;;;;-0.95;70.08;100729.16;4180015;28;21060;-60
2022/12/13 04:09:53;;;;;;;408.60;202.90;;;;;;;-0.94;70.27;100731.72;4152468;28;20669;-59
2022/12/13 04:14:24;;;;;;;394.73;193.37;;;;;;;-0.97;70.42;100726.63;4123177;28;21260;-60
2022/12/13 04:16:26;;;;;;;385.23;169.17;;;;;;;-1.00;70.31;100726.81;4159298;28;20746;-60
2022/12/13 04:18:28;;;;;;;391.03;185.53;;;;;;;-1.01;70.38;100726.94;4174805;28;20713;-60
2022/12/13 04:20:31;;;;;;;376.37;153.70;;;;;;;-0.99;70.31;100733.84;4176162;28;21509;-58
2022/12/13 04:22:34;;;;;;;428.77;239.83;;;;;;;-0.99;70.33;100725.00;4176460;28;20725;-60
2022/12/13 04:24:37;;;;;;;425.77;259.57;;;;;;;-1.10;70.38;100718.66;4167817;28;20638;-59
2022/12/13 04:26:40;;;;;;;425.47;215.97;;;;;;;-1.02;70.53;100728.75;4153669;28;20732;-59
2022/12/13 04:28:42;;;;;;;422.27;243.63;;;;;;;-0.98;70.39;100737.31;4171827;28;20741;-60
2022/12/13 04:30:44;;;;;;;417.67;234.80;;;;;;;-0.98;70.24;100745.28;4162419;28;20738;-59
2022/12/13 04:32:47;;;;;;;396.70;171.10;;;;;;;-0.99;70.31;100732.97;4170723;28;20713;-60
2022/12/13 04:34:49;;;;;;;400.43;179.83;;;;;;;-0.97;70.19;100737.22;4168536;28;21535;-58
2022/12/13 04:36:51;;;;;;;394.47;168.97;;;;;;;-0.98;70.15;100743.47;4176291;28;20741;-59
2022/12/13 04:38:54;;;;;;;401.83;193.77;;;;;;;-0.98;70.17;100732.88;4179332;28;20736;-56
2022/12/13 04:41:06;;;;;;;414.97;236.97;;;;;;;-0.98;70.03;100738.16;4178596;28;20726;-58
2022/12/13 04:43:08;;;;;;;420.37;252.10;;;;;;;-0.97;70.24;100736.34;4179247;28;20712;-57
2022/12/13 04:45:14;;;;;;;410.83;216.97;;;;;;;-0.94;70.31;100739.66;4177877;28;20625;-60
2022/12/13 04:47:16;;;;;;;401.73;192.57;;;;;;;-0.97;70.16;100731.06;4179178;28;20704;-58
2022/12/13 04:49:19;;;;;;;392.33;175.03;;;;;;;-0.94;70.19;100738.81;4162371;28;20749;-56
2022/12/13 04:51:21;;;;;;;504.10;420.93;;;;;;;-0.92;70.12;100739.56;4164267;28;20770;-58
2022/12/13 04:53:24;;;;;;;453.93;302.37;;;;;;;-0.91;69.86;100746.56;4164524;28;20649;-59
2022/12/13 04:55:26;;;;;;;445.57;297.73;;;;;;;-0.88;69.72;100742.84;4161897;28;20314;-59
2022/12/13 04:57:30;;;;;;;495.50;390.63;;;;;;;-0.89;69.51;100738.50;4162575;28;20310;-55
2022/12/13 04:59:32;;;;;;;453.93;306.63;;;;;;;-0.88;69.66;100741.03;4171519;28;20262;-59
2022/12/13 05:01:34;;;;;;;449.43;304.63;;;;;;;-0.87;69.52;100740.09;4170809;28;20314;-60
2022/12/13 05:03:38;;;;;;;448.27;303.83;;;;;;;-0.88;69.34;100745.50;4162138;28;20649;-59
2022/12/13 05:05:40;;;;;;;445.80;306.23;;;;;;;-0.89;69.29;100744.66;4168387;28;20295;-59
2022/12/13 05:07:42;;;;;;;441.70;281.30;;;;;;;-0.87;69.09;100740.09;4161665;28;20279;-60
2022/12/13 05:09:45;;;;;;;445.80;302.80;;;;;;;-0.87;69.11;100745.41;4169203;28;20757;-60
2022/12/13 05:11:47;;;;;;;432.13;258.33;;;;;;;-0.87;69.13;100742.75;4169352;28;20749;-60
2022/12/13 05:13:51;;;;;;;437.53;275.80;;;;;;;-0.87;69.14;100745.41;4166601;28;20287;-60
2022/12/13 05:15:56;;;;;;;431.10;260.00;;;;;;;-0.87;69.07;100745.41;4170418;28;20772;-59
2022/12/13 05:18:00;;;;;;;474.80;375.50;;;;;;;-0.88;69.02;100741.03;4169713;28;20311;-60
2022/12/13 05:20:03;;;;;;;441.43;284.87;;;;;;;-0.88;69.01;100741.03;4168830;28;20306;-60
2022/12/13 05:22:14;;;;;;;450.23;307.80;;;;;;;-0.88;68.92;100743.69;4166303;28;20282;-60
2022/12/13 05:24:16;;;;;;;436.13;273.30;;;;;;;-0.88;68.76;100737.56;4165281;28;20824;-60
2022/12/13 05:26:19;;;;;;;417.63;237.83;;;;;;;-0.90;68.94;100737.66;4166325;28;20342;-60
2022/12/13 05:28:24;;;;;;;415.17;212.83;;;;;;;-0.89;69.02;100741.16;4169220;28;20282;-59
2022/12/13 05:30:28;;;;;;;428.80;236.83;;;;;;;-0.91;68.76;100735.94;4167218;28;20777;-58
2022/12/13 05:32:32;;;;;;;430.33;248.63;;;;;;;-0.93;68.76;100738.69;4175410;28;20278;-58
2022/12/13 05:34:35;;;;;;;413.27;213.40;;;;;;;-0.94;69.13;100737.03;4167715;28;20283;-58
2022/12/13 05:36:37;;;;;;;436.80;271.80;;;;;;;-0.96;69.08;100725.66;4164223;28;20323;-59
2022/12/13 05:38:39;;;;;;;431.63;259.93;;;;;;;-0.98;69.00;100730.22;4173922;28;20305;-59
2022/12/13 05:40:42;;;;;;;409.60;206.57;;;;;;;-0.99;69.04;100739.13;4167526;28;20314;-60
2022/12/13 05:42:44;;;;;;;447.47;295.63;;;;;;;-1.00;69.17;100728.63;4170569;28;20656;-59
2022/12/13 05:44:48;;;;;;;387.43;176.77;;;;;;;-0.97;69.54;100739.88;4168017;28;20287;-58
2022/12/13 05:46:51;;;;;;;454.00;319.27;;;;;;;-0.96;69.33;100735.41;4179120;28;21037;-61
2022/12/13 05:48:54;;;;;;;466.87;326.40;;;;;;;-0.96;69.20;100740.72;4175504;28;20655;-59
2022/12/13 05:50:56;;;;;;;437.93;272.10;;;;;;;-0.99;68.97;100731.19;4157884;28;20318;-61
2022/12/13 05:52:58;;;;;;;437.20;280.53;;;;;;;-1.04;69.13;100735.09;4162217;28;20301;-60
2022/12/13 05:55:01;;;;;;;444.27;295.43;;;;;;;-1.03;69.56;100734.16;4158943;28;20283;-59
2022/12/13 05:57:03;;;;;;;438.57;271.20;;;;;;;-1.03;69.45;100726.19;4162070;28;20315;-60
2022/12/13 05:59:05;;;;;;;432.63;248.70;;;;;;;-1.03;69.42;100734.97;4165135;28;20302;-60
2022/12/13 06:01:09;;;;;;;384.87;167.17;;;;;;;-1.03;69.39;100731.50;4166201;28;20664;-60
2022/12/13 06:03:13;;;;;;;396.17;196.13;;;;;;;-1.07;69.47;100727.34;4164194;28;20697;-60
2022/12/13 06:05:16;;;;;;;438.43;295.47;;;;;;;-1.09;69.45;100728.28;4167395;28;20712;-59
2022/12/13 06:07:18;;;;;;;400.70;210.47;;;;;;;-1.08;69.34;100737.09;4180863;28;20617;-60
2022/12/13 06:09:21;;;;;;;400.63;210.40;;;;;;;-1.08;69.38;100739.75;4177641;28;20742;-60
2022/12/13 06:11:23;;;;;;;389.37;176.00;;;;;;;-1.16;69.40;100720.84;4161860;28;20748;-59
2022/12/13 06:13:25;;;;;;;407.60;211.07;;;;;;;-1.16;69.59;100727.00;4172817;28;20732;-60
2022/12/13 06:15:28;;;;;;;410.80;220.67;;;;;;;-1.13;69.63;100740.06;4177493;28;21282;-60
2022/12/13 06:17:31;;;;;;;400.90;196.27;;;;;;;-1.14;69.72;100734.84;4172888;28;20753;-60
2022/12/13 06:19:35;;;;;;;391.33;166.83;;;;;;;-1.14;69.42;100741.00;4178398;28;21151;-60
2022/12/13 06:21:37;;;;;;;393.20;186.73;;;;;;;-1.13;69.54;100742.72;4166844;28;21100;-60
2022/12/13 06:23:39;;;;;;;393.80;186.00;;;;;;;-1.13;69.32;100737.41;4165629;28;20713;-59
2022/12/13 06:25:41;;;;;;;390.10;168.80;;;;;;;-1.13;69.39;100740.06;4165463;28;20733;-60
2022/12/13 06:27:44;;;;;;;505.53;450.63;;;;;;;-1.14;69.32;100741.00;4155288;28;21785;-59
2022/12/13 06:29:46;;;;;;;458.20;324.43;;;;;;;-1.16;69.31;100745.56;4156975;28;20394;-60
2022/12/13 06:31:52;;;;;;;437.00;276.97;;;;;;;-1.11;69.21;100745.25;4163937;28;20318;-60
2022/12/13 06:33:54;;;;;;;535.00;478.63;;;;;;;-1.13;69.04;100750.66;4163990;28;20366;-60
2022/12/13 06:35:58;;;;;;;477.27;383.83;;;;;;;-1.13;69.09;100740.06;4160512;28;20319;-60
2022/12/13 06:38:00;;;;;;;451.33;326.47;;;;;;;-1.11;69.04;100745.25;4161108;28;20657;-59
2022/12/13 06:40:03;;;;;;;427.43;259.73;;;;;;;-1.12;68.97;100757.63;4161371;28;20307;-60
2022/12/13 06:42:07;;;;;;;409.13;197.83;;;;;;;-1.13;69.05;100753.31;4167109;28;20708;-60
2022/12/13 06:44:11;;;;;;;392.97;160.00;;;;;;;-1.13;69.04;100760.38;4160377;28;21049;-59
2022/12/13 06:46:13;;;;;;;395.87;170.37;;;;;;;-1.14;68.98;100756.06;4159720;28;20741;-60
2022/12/13 06:48:17;;;;;;;403.60;203.87;;;;;;;-1.18;69.05;100755.38;4162016;28;20634;-58
2022/12/13 06:50:19;;;;;;;400.13;169.17;;;;;;;-1.18;69.07;100770.44;4160640;28;20729;-60
2022/12/13 06:52:23;;;;;;;394.30;160.47;;;;;;;-1.20;69.01;100767.91;4163435;28;20734;-59
2022/12/13 06:54:25;;;;;;;390.57;153.63;;;;;;;-1.19;69.11;100774.03;4161201;28;20717;-59
2022/12/13 06:56:27;;;;;;;392.00;165.33;;;;;;;-1.22;69.16;100780.41;4160533;28;20746;-60
2022/12/13 06:58:30;;;;;;;391.33;164.23;;;;;;;-1.22;69.17;100776.88;4164267;28;20745;-60
2022/12/13 07:00:32;;;;;;;391.63;167.97;;;;;;;-1.22;69.46;100780.41;4163607;28;20737;-59
2022/12/13 07:02:34;;;;;;;392.90;158.90;;;;;;;-1.21;69.30;100776.78;4166779;28;20713;-59
2022/12/13 07:04:37;;;;;;;392.23;167.90;;;;;;;-1.21;69.30;100781.25;4162405;28;20701;-59
2022/12/13 07:06:39;;;;;;;393.33;170.70;;;;;;;-1.23;69.40;100783.16;4163717;28;20737;-60
2022/12/13 07:08:43;;;;;;;388.77;154.57;;;;;;;-1.27;69.41;100777.19;4160241;28;20649;-61
2022/12/13 07:10:46;;;;;;;385.13;158.90;;;;;;;-1.27;69.54;100783.34;4156519;28;20757;-60
2022/12/13 07:12:48;;;;;;;385.43;160.40;;;;;;;-1.28;69.51;100780.81;4162772;28;21067;-59
2022/12/13 07:14:50;;;;;;;385.17;159.73;;;;;;;-1.29;69.69;100787.03;4159639;28;20672;-58
2022/12/13 07:16:53;;;;;;;379.93;144.07;;;;;;;-1.33;69.61;100790.88;4162080;28;21505;-59
2022/12/13 07:18:56;;;;;;;379.20;153.37;;;;;;;-1.37;69.86;100787.53;4164645;28;22682;-59
2022/12/13 07:20:59;;;;;;;375.80;147.73;;;;;;;-1.38;69.95;100796.47;4161559;28;20733;-60
2022/12/13 07:23:01;;;;;;;361.03;118.77;;;;;;;-1.38;70.08;100787.63;4168857;28;20713;-60
2022/12/13 07:25:05;;;;;;;371.60;135.13;;;;;;;-1.42;70.25;100789.66;4161986;28;20713;-59
2022/12/13 07:27:08;;;;;;;402.77;223.43;;;;;;;-1.39;70.18;100799.22;4164557;28;21255;-60
2022/12/13 07:29:10;;;;;;;410.00;219.57;;;;;;;-1.38;70.14;100800.88;4152149;28;21003;-60
2022/12/13 07:31:13;;;;;;;437.33;284.83;;;;;;;-1.41;70.37;100790.47;4163587;28;21282;-60
2022/12/13 07:33:15;;;;;;;397.40;187.63;;;;;;;-1.43;70.19;100793.22;4164839;28;20287;-59
2022/12/13 07:35:18;;;;;;;398.87;191.73;;;;;;;-1.41;69.95;100798.44;4175086;28;20736;-59
2022/12/13 07:37:20;;;;;;;417.70;222.07;;;;;;;-1.39;70.30;100796.56;4175823;28;21319;-60
2022/12/13 07:39:24;;;;;;;385.73;161.17;;;;;;;-1.41;70.26;100801.94;4172289;28;20812;-60
2022/12/13 07:41:28;;;;;;;369.57;143.83;;;;;;;-1.40;70.23;100802.78;4171263;28;20744;-60
2022/12/13 07:43:30;;;;;;;428.20;241.37;;;;;;;-1.42;70.27;100802.91;4163456;28;20713;-60
2022/12/13 07:45:33;;;;;;;448.83;279.83;;;;;;;-1.45;70.49;100801.28;4156993;28;20804;-60
2022/12/13 07:47:35;;;;;;;419.57;233.90;;;;;;;-1.42;70.49;100805.53;4176606;28;20283;-60
2022/12/13 07:49:39;;;;;;;416.97;218.87;;;;;;;-1.39;70.64;100808.00;4173158;28;21226;-60
2022/12/13 07:51:41;;;;;;;402.87;183.33;;;;;;;-1.39;70.51;100813.28;4162349;28;20730;-59
2022/12/13 07:53:43;;;;;;;401.47;185.77;;;;;;;-1.39;70.54;100809.81;4164311;28;20694;-60
2022/12/13 07:55:46;;;;;;;399.77;178.07;;;;;;;-1.40;70.49;100816.03;4157450;28;21107;-60
2022/12/13 07:57:49;;;;;;;405.33;189.47;;;;;;;-1.44;70.42;100810.09;4169433;28;20685;-59
2022/12/13 07:59:51;;;;;;;402.20;195.40;;;;;;;-1.43;70.71;100817.06;4165943;28;20745;-60
2022/12/13 08:01:54;;;;;;;399.40;188.07;;;;;;;-1.42;70.79;100810.84;4162435;28;21346;-60
2022/12/13 08:03:57;;;;;;;399.20;192.57;;;;;;;-1.42;70.77;100817.94;4163505;28;21081;-60
2022/12/13 08:06:00;;;;;;;395.07;182.23;;;;;;;-1.49;70.92;100810.38;4164138;28;20737;-58
2022/12/13 08:08:03;;;;;;;388.70;166.77;;;;;;;-1.46;71.15;100820.78;4165911;28;20701;-60
2022/12/13 08:10:06;;;;;;;381.90;154.77;;;;;;;-1.45;71.13;100811.88;4178609;28;20724;-60
2022/12/13 08:12:08;;;;;;;380.67;154.97;;;;;;;-1.42;71.28;100820.59;4174734;28;21259;-60
2022/12/13 08:14:12;;;;;;;368.10;134.73;;;;;;;-1.40;71.15;100827.47;4163163;28;20709;-60
2022/12/13 08:16:16;;;;;;;350.97;116.30;;;;;;;-1.41;70.96;100824.94;4177918;28;20881;-60
2022/12/13 08:18:19;;;;;;;354.60;122.77;;;;;;;-1.40;71.08;100824.00;4178287;28;20753;-60
2022/12/13 08:20:21;;;;;;;354.83;125.43;;;;;;;-1.40;71.13;100830.13;4165366;28;20717;-60
2022/12/13 08:22:24;;;;;;;360.27;132.67;;;;;;;-1.39;71.06;100823.91;4166050;28;20712;-60
2022/12/13 08:24:28;;;;;;;342.03;105.67;;;;;;;-1.39;71.25;100826.53;4163749;28;20725;-60
2022/12/13 08:26:30;;;;;;;342.87;107.87;;;;;;;-1.38;71.26;100832.69;4164480;28;20741;-59
2022/12/13 08:28:33;;;;;;;353.23;125.43;;;;;;;-1.38;70.89;100827.38;4167136;28;20716;-59
2022/12/13 08:30:37;;;;;;;351.87;117.57;;;;;;;-1.38;71.24;100825.59;4164207;28;20664;-60
2022/12/13 08:32:39;;;;;;;360.77;134.82;;;;;;;-1.38;71.16;100827.38;4164271;28;20713;-59
2022/12/13 08:34:42;;;;;;;357.33;133.25;;;;;;;-1.39;70.99;100823.91;4162787;28;20323;-60
2022/12/13 08:36:44;;;;;;;385.47;177.77;;;;;;;-1.33;71.18;100833.25;4165764;28;20314;-59
2022/12/13 08:38:46;;;;;;;424.00;241.23;;;;;;;-1.28;71.14;100829.34;4163070;28;20839;-60
2022/12/13 08:40:49;;;;;;;408.93;196.67;;;;;;;-1.28;70.96;100831.16;4164921;28;20673;-60
2022/12/13 08:42:51;;;;;;;387.40;168.50;;;;;;;-1.28;70.62;100839.09;4165080;28;20705;-60
2022/12/13 08:44:53;;;;;;;391.87;177.17;;;;;;;-1.32;70.68;100835.81;4166916;28;20705;-60
2022/12/13 08:46:57;;;;;;;375.90;147.47;;;;;;;-1.31;70.91;100839.31;4164137;28;20733;-60
2022/12/13 08:48:59;;;;;;;397.67;196.40;;;;;;;-1.30;70.98;100843.63;4164604;28;21095;-60
2022/12/13 08:51:03;;;;;;;387.23;161.67;;;;;;;-1.30;70.90;100849.81;4165369;28;20633;-60
2022/12/13 08:53:05;;;;;;;381.37;150.47;;;;;;;-1.29;71.00;100843.53;4167255;28;21407;-60
2022/12/13 08:55:08;;;;;;;386.83;163.47;;;;;;;-1.29;70.83;100846.19;4156950;28;20709;-59
2022/12/13 08:57:10;;;;;;;377.40;140.27;;;;;;;-1.28;70.78;100849.72;4167415;28;20712;-59
2022/12/13 08:59:13;;;;;;;391.03;156.37;;;;;;;-1.29;70.49;100842.69;4158455;28;20782;-59
2022/12/13 09:01:15;;;;;;;392.33;162.27;;;;;;;-1.31;70.63;100847.25;4161594;28;20969;-59
2022/12/13 09:03:19;;;;;;;389.07;152.30;;;;;;;-1.28;70.85;100849.72;4166936;28;21070;-60
2022/12/13 09:05:21;;;;;;;391.67;167.27;;;;;;;-1.24;71.08;100848.53;4157920;28;20713;-60
2022/12/13 09:07:23;;;;;;;375.73;135.63;;;;;;;-1.20;70.84;100851.88;4158890;28;20714;-60
2022/12/13 09:09:27;;;;;;;372.30;131.90;;;;;;;-1.19;70.62;100846.47;4159024;28;20741;-60
2022/12/13 09:11:30;;;;;;;373.07;132.03;;;;;;;-1.19;70.52;100848.25;4156064;28;20749;-59
2022/12/13 09:13:34;;;;;;;381.73;149.90;;;;;;;-1.17;70.58;100852.50;4157634;28;20733;-59
2022/12/13 09:15:39;;;;;;;382.00;154.20;;;;;;;-1.15;70.20;100850.59;4155856;28;20745;-59
2022/12/13 09:17:41;;;;;;;379.10;147.53;;;;;;;-1.16;70.27;100854.22;4157781;28;20710;-58